Weather observations for the past three days for
Beatrice Municipal
Metric (Imperial)
Date Time (cdt) Wind (kph) Vis. (km) Weather Sky Cond. Temperature (ºC) Relative Humidity Wind Chill (°C) Heat Index (°C) Pressure Precipitation (cm)
Air Dwpt 6 hour altimeter (cm) sea level (mb) 1 hr 3 hr 6 hr
Max. Min.
08 03:55 NE 13 16.09 Light Rain SCT075 SCT095 OVC110 14.7 1.5 41% 75.64 0.0
08 03:35 NE 9 16.09 Overcast SCT075 OVC100 15.4 0.5 36% 75.67 0.0
08 03:15 NE 9 16.09 Overcast SCT080 OVC100 15.9 0.2 35% 75.69 0.0
08 02:35 NE 11 16.09 Overcast OVC100 13.6 2.5 47% 75.74 0.0
08 02:15 NE 9 16.09 Mostly Cloudy BKN110 13.3 1.5 45% 75.67 0.0
08 01:55 NE 7 16.09 Fair CLR 12.6 1.8 48% 75.69 0.0
08 01:35 Calm 16.09 Fair CLR 12.7 1.5 47% 75.72 0.0
08 01:15 Calm 16.09 Fair CLR 13.4 1 43% 75.74 0.0
08 00:55 E 6 16.09 Fair CLR 13.6 0.6 23.5 13.4 41% 75.74 0.0
08 00:35 Calm 16.09 Fair CLR 14.1 0.7 40% 75.74 0.0
08 00:15 E 6 16.09 Fair CLR 14.5 0.8 40% 75.72 0.0
07 23:55 Calm 16.09 Fair CLR 15.2 0.6 37% 75.74 0.0
07 23:35 SE 6 16.09 Fair CLR 15.2 0.9 38% 75.74 0.0
07 23:15 E 6 16.09 Fair CLR 15.8 0.6 36% 75.72 0.0
07 22:55 E 6 16.09 Partly Cloudy SCT120 16.7 0 32% 75.74 0.0
07 22:35 E 6 16.09 Fair CLR 17.2 0 31% 75.74 0.0
07 21:55 E 6 16.09 Partly Cloudy SCT110 18 -0.5 29% 75.72 0.0
07 21:35 E 7 16.09 Partly Cloudy SCT110 16.9 0.6 33% 75.72 0.0
07 21:15 NE 6 16.09 Partly Cloudy SCT110 18.5 -1.3 26% 75.72 0.0
07 20:55 NE 7 16.09 Mostly Cloudy BKN110 18.8 -1.3 26% 75.69 0.0
07 20:35 N 9 16.09 Fair CLR 17.8 -0.7 29% 75.69 0.0
07 20:15 N 11 16.09 Fair CLR 18.5 -0.3 28% 75.64 0.0
07 19:55 N 13 16.09 Fair CLR 19.7 0.3 27% 75.64 0.0
07 19:35 N 15 16.09 Fair CLR 21.8 -0.2 23% 75.62 0.0
07 19:15 N 15 16.09 Fair CLR 22.9 -0.5 21% 75.62 0.0
07 18:55 N 13 16.09 Fair CLR 23.6 -1.5 25 21.3 19% 75.62 0.0
07 18:35 N 17 16.09 Fair CLR 24.1 -2.2 17% 24 75.62 0.0
07 18:15 NW 24 G 30 16.09 Fair CLR 24.3 -1.9 18% 24 75.62 0.0
07 17:55 N 19 16.09 Fair CLR 24.6 -2.2 17% 25 75.62 0.0
07 17:35 NW 20 G 35 16.09 Fair CLR 24.7 -2 17% 25 75.62 0.0
07 17:15 NW 15 G 33 16.09 Fair CLR 24.5 -2.1 17% 25 75.62 0.0
07 16:55 NW 19 16.09 Fair CLR 24.7 -1.2 18% 25 75.62 0.0
07 16:35 W 30 G 35 16.09 Fair CLR 24.6 -0.8 19% 25 75.64 0.0
07 16:15 W 15 16.09 Partly Cloudy SCT100 24.2 0.2 21% 25 75.64 0.0
07 15:55 W 26 16.09 Partly Cloudy SCT100 24.5 -0.2 20% 25 75.69 0.0
07 15:35 W 15 G 37 16.09 Partly Cloudy SCT095 24.4 0 20% 25 75.69 0.0
07 15:15 NW 24 G 31 16.09 Partly Cloudy SCT095 24 1.1 22% 25 75.72 0.0
07 14:35 W 35 G 43 16.09 Partly Cloudy and Breezy SCT095 23.2 1.5 24% 75.74 0.0
07 14:15 W 22 G 41 16.09 Fair CLR 22.8 1.1 24% 75.77 0.0
07 13:55 SW 26 G 44 16.09 Fair CLR 22.3 1.3 25% 75.74 0.0
07 13:35 SW 22 G 43 16.09 Fair CLR 22.3 1.9 26% 75.77 0.0
07 13:15 SW 30 G 43 16.09 Fair CLR 21.6 1.6 27% 75.77 0.0
07 12:55 SW 26 G 41 16.09 Fair CLR 21 2 21 7.3 29% 75.79 0.0
07 12:15 SW 30 G 41 16.09 Fair CLR 19.8 1.2 29% 75.82 0.0
07 11:55 SW 28 G 35 16.09 Fair CLR 19.2 2.1 32% 75.87 0.0
07 11:35 SW 33 G 41 16.09 Fair and Breezy CLR 18.3 2 34% 75.87 0.0
07 10:55 SW 24 16.09 Fair CLR 16.8 2.5 38% 75.9 0.0
07 10:35 SW 26 G 33 16.09 Fair CLR 16.3 3.1 41% 75.95 0.0
07 10:15 SW 19 G 31 16.09 Fair CLR 15.5 3.3 44% 75.97 0.0
07 09:55 SW 24 16.09 Fair CLR 14.7 3.5 47% 75.97 0.0
07 09:35 W 22 G 31 16.09 Fair CLR 13.8 3.9 52% 75.97 0.0
07 09:15 SW 19 16.09 Fair CLR 12.9 4.5 57% 76 0.0
07 08:55 SW 19 16.09 Fair CLR 11.9 4.5 61% 76.02 0.0
07 08:35 W 20 16.09 Fair CLR 11 4.7 65% 76.02 0.0
07 08:15 SW 19 G 26 16.09 Fair CLR 9.8 4.6 70% 8 76.07 0.0
07 07:55 SW 15 16.09 Fair CLR 9.1 4.6 74% 7 76.07 0.0
07 07:35 SW 13 16.09 Fair CLR 8.5 4.5 76% 7 76.07 0.0
07 07:15 SW 13 16.09 Fair CLR 7.7 4.2 79% 6 76.07 0.0
07 06:55 SW 7 16.09 Fair CLR 7.2 4.1 9.2 6.7 81% 6 76.05 0.0
07 06:35 SW 15 16.09 Fair CLR 7 4.2 83% 5 76.07 0.0
07 05:55 SW 13 16.09 Fair CLR 7 4.2 83% 5 76.05 0.0
07 05:35 SW 11 16.09 Fair CLR 7 4.3 83% 5 76.07 0.0
07 05:15 SW 13 16.09 Fair CLR 7 4.5 84% 5 76.1 0.0
07 04:55 SW 15 16.09 Fair CLR 7.1 4.3 83% 5 76.1 0.0
07 04:35 SW 15 16.09 Fair CLR 7.2 4.3 82% 5 76.1 0.0
07 04:15 SW 17 16.09 Fair CLR 7.3 4.2 81% 5 76.12 0.0
07 03:55 SW 11 16.09 Fair CLR 7.4 4 79% 6 76.12 0.0
07 03:35 SW 11 16.09 Fair CLR 7.4 4 79% 6 76.15 0.0
07 03:15 SW 7 16.09 Fair CLR 6.8 3.6 80% 6 76.15 0.0
07 02:55 SW 11 16.09 Fair CLR 7.6 3.8 77% 6 76.17 0.0
07 02:35 SW 11 16.09 Fair CLR 8.1 4 76% 6 76.17 0.0
07 02:15 SW 15 16.09 Fair CLR 8.5 3.9 73% 6 76.2 0.0
07 01:55 SW 15 16.09 Fair CLR 8.6 3.6 71% 6 76.2 0.0
07 01:35 SW 15 16.09 Fair CLR 8.4 3.5 72% 6 76.23 0.0
07 01:15 W 13 16.09 Fair CLR 9.1 3.5 68% 7 76.25 0.0
07 00:55 W 13 16.09 Fair CLR 9.2 3.3 15.7 9.1 67% 7 76.25 0.0
07 00:35 W 15 16.09 Fair CLR 9.3 3 65% 7 76.25 0.0
07 00:15 W 17 16.09 Fair CLR 9.5 2.6 62% 7 76.25 0.0
06 23:35 W 13 16.09 Fair CLR 9.6 1.8 59% 8 76.28 0.0
06 23:15 W 11 16.09 Fair CLR 9.4 1.1 56% 8 76.28 0.0
06 22:55 SW 11 16.09 Fair CLR 10.1 0.4 51% 76.28 0.0
06 22:35 SW 11 16.09 Fair CLR 10.7 -0.3 47% 76.28 0.0
06 22:15 SW 9 16.09 Fair CLR 10.5 -0.2 48% 76.28 0.0
06 21:55 SW 9 16.09 Fair CLR 11.2 -0.7 44% 76.28 0.0
06 21:35 Calm 16.09 Fair CLR 11.9 -0.8 42% 76.25 0.0
06 20:55 SW 6 16.09 Fair CLR 12.6 -1.2 39% 76.23 0.0
06 20:35 SW 7 16.09 Fair CLR 13 -1.2 38% 76.23 0.0
06 20:15 SW 7 16.09 Fair CLR 13.6 -1.2 36% 76.23 0.0
06 19:55 W 6 16.09 Fair CLR 14 -1.6 34% 76.23 0.0
06 19:35 W 11 16.09 Partly Cloudy SCT095 15 -3.4 28% 76.23 0.0
06 19:15 W 13 16.09 Fair CLR 15.5 -4 26% 76.23 0.0
06 18:55 NW 17 16.09 Partly Cloudy SCT090 15.8 -4.5 16.9 13.6 25% 76.25 0.0
06 18:35 W 9 16.09 Mostly Cloudy BKN090 16.1 -3.9 25% 76.25 0.0
06 18:15 NW 17 16.09 Partly Cloudy SCT090 16.4 -4.2 24% 76.28 0.0
06 17:55 NW 20 G 28 16.09 Mostly Cloudy BKN090 16.5 -4.1 24% 76.28 0.0
06 17:35 W 15 16.09 Fair CLR 16.5 -4.5 24% 76.28 0.0
06 17:15 W 20 G 30 16.09 Partly Cloudy SCT085 16.6 -4 24% 76.28 0.0
06 16:55 NW 11 16.09 Overcast OVC085 15.5 -4.1 26% 76.3 0.0
06 16:35 NW 11 16.09 Mostly Cloudy BKN085 15.7 -3.7 26% 76.33 0.0
06 16:15 NW 13 G 26 16.09 Partly Cloudy SCT085 14.9 -4.4 26% 76.33 0.0
06 15:55 W 15 G 31 16.09 Partly Cloudy SCT085 16.4 -3.3 26% 76.35 0.0
06 15:35 W 11 16.09 Partly Cloudy SCT080 14.5 -5.1 26% 76.35 0.0
06 15:15 NW 26 G 35 16.09 Overcast OVC080 16.5 -3.2 26% 76.38 0.0
06 14:55 NW 24 G 33 16.09 Mostly Cloudy BKN080 15 -3.7 28% 76.4 0.0
06 14:35 W 11 16.09 Mostly Cloudy BKN080 15 -4.1 27% 76.43 0.0
06 14:15 N 13 16.09 Partly Cloudy SCT080 14.1 -3.9 29% 76.43 0.0
06 13:55 NW 19 G 31 16.09 Mostly Cloudy BKN080 15.3 -3.5 27% 76.43 0.0
06 13:35 NW 7 G 31 16.09 Fair CLR 14 -4.4 28% 76.45 0.0
06 13:15 NW 17 G 28 16.09 Partly Cloudy SCT085 13.8 -4.8 27% 76.45 0.0
06 12:55 NW 13 G 28 16.09 Mostly Cloudy SCT075 BKN085 14.1 -4 14.1 4.8 29% 76.48 0.0
06 12:35 W 15 G 26 16.09 Partly Cloudy SCT085 SCT090 13.1 -4.9 28% 76.48 0.0
06 12:15 W 7 16.09 Mostly Cloudy SCT070 BKN085 12.7 -5.1 29% 76.5 0.0
06 11:55 Calm 16.09 Partly Cloudy SCT070 SCT085 12.5 -4.8 30% 76.5 0.0
06 11:35 N 13 16.09 Fair CLR 12.9 -4.4 30% 76.5 0.0
06 11:15 W 9 16.09 Fair CLR 12.7 -3.7 32% 76.5 0.0
06 10:55 NW 9 16.09 Fair CLR 11.6 -4.1 33% 76.5 0.0
06 10:35 Calm 16.09 Fair CLR 11 -4 35% 76.5 0.0
06 10:15 N 6 16.09 Fair CLR 10.9 -3.1 38% 76.5 0.0
06 09:55 NE 6 16.09 Fair CLR 10.5 -1.8 43% 76.5 0.0
06 09:35 Calm 16.09 Fair CLR 9.5 -2.1 45% 76.5 0.0
06 09:15 Calm 16.09 Fair CLR 9 -2.1 46% 76.5 0.0
06 08:55 NE 6 16.09 Fair CLR 8.7 -2 47% 76.5 0.0
06 08:35 Calm 16.09 Partly Cloudy SCT080 8.3 -0.4 55% 76.48 0.0
06 08:15 N 6 16.09 Partly Cloudy SCT080 8 -1.1 53% 76.45 0.0
06 07:55 Calm 16.09 Partly Cloudy SCT080 7.1 0.3 62% 76.43 0.0
06 07:35 Calm 16.09 Fair CLR 6.3 0.2 65% 76.4 0.0
06 07:15 Calm 16.09 Partly Cloudy SCT090 5.6 0.7 71% 76.38 0.0
06 06:55 Calm 16.09 Partly Cloudy SCT090 4.8 1.1 9.6 4.6 77% 76.33 0.0
06 06:35 Calm 16.09 Partly Cloudy SCT090 5.4 -0.2 68% 76.33 0.0
06 06:15 N 6 16.09 Mostly Cloudy BKN090 6.2 -0.6 62% 76.3 0.0
06 05:55 NE 6 16.09 Overcast OVC090 6.5 -0.6 61% 76.3 0.0
06 05:35 N 7 16.09 Overcast SCT080 OVC090 7 -1.6 55% 6 76.3 0.0
06 05:15 N 7 16.09 Overcast SCT080 OVC090 7 -0.9 58% 6 76.3 0.0
06 04:55 N 7 16.09 Mostly Cloudy BKN085 7.7 -1.4 53% 7 76.3 0.0
06 04:35 N 7 16.09 Partly Cloudy SCT085 7.8 -1.5 52% 7 76.28 0.0
06 04:15 N 7 16.09 Fair CLR 8.2 -1.9 49% 7 76.28 0.0
06 03:55 N 7 16.09 Fair CLR 8.3 -1.4 51% 7 76.28 0.0
06 03:35 N 7 16.09 Fair CLR 7.5 0.5 62% 6 76.25 0.0
06 03:15 N 6 16.09 Partly Cloudy SCT120 7.9 0.8 61% 76.23 0.0
06 02:55 N 6 16.09 Partly Cloudy SCT120 8.1 0.5 59% 76.23 0.0
06 02:35 Calm 16.09 Overcast OVC110 8 1.1 62% 76.2 0.0
06 02:15 N 6 16.09 Overcast OVC100 7.8 1.8 66% 76.2 0.0
06 01:55 N 6 16.09 Overcast OVC110 9 -1 50% 76.2 0.0
06 01:35 NE 9 16.09 Overcast OVC100 9.1 -1.7 47% 8 76.2 0.0
06 01:15 NE 9 16.09 Overcast BKN100 OVC120 9.5 -2.1 45% 8 76.2 0.0
06 00:55 NE 11 16.09 Mostly Cloudy BKN120 9.5 -2.1 13 9.2 45% 8 76.2 0.0
06 00:35 NE 9 16.09 Mostly Cloudy BKN120 9.5 -1.6 46% 8 76.17 0.0
06 00:15 NE 7 16.09 Partly Cloudy SCT110 9.5 -1.6 46% 9 76.17 0.0
05 23:55 NE 11 16.09 Partly Cloudy SCT110 9.8 -1.6 45% 8 76.15 0.0
05 23:35 NE 9 16.09 Partly Cloudy SCT110 10.1 -1.7 44% 76.15 0.0
05 23:15 NE 9 16.09 Mostly Cloudy BKN120 10.2 -1.1 46% 76.15 0.0
05 22:55 NE 6 16.09 Overcast OVC120 10.2 -0.6 47% 76.15 0.0
05 22:35 Calm 16.09 Overcast OVC110 10.2 -0.9 46% 76.15 0.0
05 22:15 NE 7 16.09 Partly Cloudy SCT120 10.6 -0.6 46% 76.12 0.0
05 21:55 NE 7 16.09 Partly Cloudy SCT120 11 -0.3 46% 76.07 0.0
05 21:35 NE 13 16.09 Mostly Cloudy BKN120 11.4 0.2 46% 76.05 0.0
05 21:15 N 9 16.09 Mostly Cloudy SCT100 BKN120 11.1 1.4 52% 76.02 0.0
05 20:55 N 7 16.09 Overcast OVC110 11.3 2 53% 76.02 0.0
05 20:35 Calm 16.09 Overcast OVC110 11.6 3.3 57% 76 0.0
05 20:15 Calm 16.09 Overcast OVC110 12 2.5 53% 75.97 0.0
05 19:55 Calm 16.09 Overcast OVC110 12.5 0.1 43% 75.97 0.0
05 19:35 N 6 16.09 Overcast SCT070 SCT080 OVC110 12.8 -1.1 38% 75.95 0.0
05 19:15 N 17 16.09 Overcast SCT070 BKN080 OVC110 13 -1.7 36% 75.95 0.0
05 18:55 N 11 16.09 Overcast OVC080 13 -1.8 14.9 12.5 36% 75.95 0.0
05 18:35 N 15 16.09 Overcast SCT065 BKN080 OVC110 13.5 -1.3 36% 75.95 0.0
05 18:15 N 17 16.09 Mostly Cloudy BKN110 13.6 -1.6 35% 75.95 0.0
05 17:55 N 17 16.09 Overcast OVC110 13.6 -0.8 37% 75.95 0.0
05 17:35 N 17 16.09 Mostly Cloudy BKN110 13.6 -0.7 38% 75.95 0.0
05 17:15 N 24 G 30 16.09 Mostly Cloudy BKN090 BKN120 13.8 -1.4 35% 75.95 0.0
05 16:55 N 17 G 30 16.09 Mostly Cloudy BKN090 14 -0.5 37% 75.95 0.0
05 16:35 N 19 16.09 Mostly Cloudy SCT065 BKN090 14.2 -0.3 37% 75.95 0.0
05 16:15 N 22 16.09 Overcast SCT065 OVC100 14.5 -0.5 36% 75.97 0.0
05 15:55 N 22 G 30 16.09 Overcast SCT065 OVC110 14.5 -0.1 37% 75.97 0.0
05 15:35 N 17 16.09 Overcast SCT060 OVC110 14.5 -0.4 36% 75.97 0.0
05 15:15 NW 19 16.09 Overcast SCT060 OVC110 14.8 -0.1 36% 75.97 0.0
05 14:55 N 20 G 33 16.09 Overcast SCT060 OVC110 14.5 0.1 38% 76 0.0
05 14:35 N 19 16.09 Mostly Cloudy BKN110 13.9 -0.3 38% 76.02 0.0
05 14:15 N 15 16.09 Mostly Cloudy SCT060 SCT070 BKN120 13.9 -0.7 37% 76.02 0.0
05 13:55 N 11 16.09 Mostly Cloudy SCT070 BKN095 13.4 -1.2 37% 76.02 0.0
05 13:35 N 11 16.09 Mostly Cloudy SCT032 SCT047 BKN065 12.6 -1.9 37% 76.05 0.0
05 13:15 N 20 16.09 Overcast SCT050 BKN065 OVC075 12.9 -0.7 39% 76.07 0.0
05 12:55 N 17 16.09 Overcast BKN075 OVC080 12.8 -1.2 12.9 9 38% 76.05 0.0
05 12:35 N 20 G 26 16.09 Overcast OVC065 12.6 -0.5 41% 76.07 0.0
05 12:15 N 15 16.09 Overcast BKN065 BKN075 OVC100 12.9 0.3 42% 76.07 0.0
05 11:55 N 9 16.09 Overcast SCT065 OVC100 12.7 0 42% 76.07 0.0
05 11:35 NE 7 16.09 Mostly Cloudy BKN100 12.7 0.3 43% 76.07 0.0
05 11:15 NE 13 16.09 Partly Cloudy SCT090 12.7 0.6 44% 76.05 0.0
05 10:35 Calm 16.09 Overcast OVC100 11.5 6.1 70% 76.02 0.0
05 10:15 Calm 16.09 Overcast OVC100 11 6 72% 76.02 0.0
05 09:55 Calm 16.09 Overcast OVC100 11.1 3.2 59% 76.02 0.0
05 09:35 Calm 16.09 Mostly Cloudy BKN110 11 4.6 65% 76.02 0.0
05 09:15 Calm 16.09 Partly Cloudy SCT110 10.6 4.7 67% 76.02 0.0
05 08:55 Calm 16.09 Mostly Cloudy BKN090 10.2 6 75% 76 0.0
05 08:15 Calm 16.09 Overcast OVC090 9.3 6.4 82% 75.95 0.0
05 07:55 Calm 16.09 Overcast OVC090 9.2 7 86% 75.95 0.0
05 07:35 Calm 16.09 Overcast BKN075 OVC100 9 6.3 83% 75.92 0.0
05 07:15 Calm 16.09 Overcast OVC075 9 6.4 84% 75.92 0.0
05 06:55 Calm 16.09 Overcast SCT075 OVC085 9 5.9 10.8 8.5 81% 75.87 0.0 0.43
05 06:30 Calm 16.09 Overcast OVC110 9 6 82% 75.82 0.0
05 06:15 Calm 16.09 Overcast SCT065 OVC110 9 5.9 81% 75.77 0.0
05 05:55 Calm 16.09 Overcast SCT070 OVC080 9 5.8 81% 75.77 0.0 0.03
05 05:35 Calm 16.09 Overcast OVC080 8.7 5.6 81% 75.79 0.0 0.03
05 05:15 NE 7 16.09 Light Rain OVC080 8.6 5.7 82% 8 75.74 0.0 0.03
05 04:55 NE 6 16.09 Light Rain OVC070 8.7 6.5 86% 75.77 0.0 0.08
05 04:35 Calm 16.09 Light Rain SCT070 OVC110 8.7 6.4 86% 75.77 0.0 0.03
05 04:15 Calm 16.09 Light Rain SCT070 SCT090 OVC110 8.6 6.3 86% 75.77 0.0
Date Time (cdt) Wind (kph) Vis. (km) Weather Sky Cond. Air Dwpt Max. Min. Relative Humidity Wind Chill (°C) Heat Index (°C) altimeter (cm) sea level (mb) 1 hr 3 hr 6 hr
6 hour
Temperature (ºC) Pressure Precipitation (cm)